ESST/TYF METAR and TAF weather

Enter ICAO airport designator
Station Type Date Time Source
ESST METAR 2022/09/26 10:20 UTC NOAA

ESST 261020Z AUTO 15007KT 9999 -DZ BKN013/// OVC020/// 10/08 Q0997 REDZ


Station Type Date Time Source
ESST Decoded METAR 2022/09/26 10:20 UTC NOAA

Station name not available
Sep 26, 2022 - 06:20 AM EDT / 2022.09.26 1020 UTC
Wind: from the SSE (150 degrees) at 8 MPH (7 KT):0
Visibility: greater than 7 mile(s):0
Sky conditions: overcast
Weather: light drizzle
Temperature: 50 F (10 C)
Dew Point: 46 F (8 C)
Relative Humidity: 87%
Pressure (altimeter): 29.44 in. Hg (0997 hPa)
ob: ESST 261020Z AUTO 15007KT 9999 -DZ BKN013/// OVC020/// 10/08 Q0997 REDZ
cycle: 10

Station Type Date Time Source
ESST TAF UTC NOAA

Error!

Example: see airport list